sensor_id;sensor_type;location;lat;lon;timestamp;temperature;humidity
18365;DHT22;9309;52.126;11.616;2023-02-12T00:01:20;7.80;93.80
18365;DHT22;9309;52.126;11.616;2023-02-12T00:03:49;7.80;93.70
18365;DHT22;9309;52.126;11.616;2023-02-12T00:06:16;7.80;93.70
18365;DHT22;9309;52.126;11.616;2023-02-12T00:08:42;7.70;94.00
18365;DHT22;9309;52.126;11.616;2023-02-12T00:11:09;7.70;94.30
18365;DHT22;9309;52.126;11.616;2023-02-12T00:13:36;7.70;94.60
18365;DHT22;9309;52.126;11.616;2023-02-12T00:16:04;7.60;94.30
18365;DHT22;9309;52.126;11.616;2023-02-12T00:18:31;7.50;94.80
18365;DHT22;9309;52.126;11.616;2023-02-12T00:20:59;7.60;95.30
18365;DHT22;9309;52.126;11.616;2023-02-12T00:23:26;7.70;95.10
18365;DHT22;9309;52.126;11.616;2023-02-12T00:25:52;7.70;94.60
18365;DHT22;9309;52.126;11.616;2023-02-12T00:28:19;7.70;94.40
18365;DHT22;9309;52.126;11.616;2023-02-12T00:30:45;7.60;95.10
18365;DHT22;9309;52.126;11.616;2023-02-12T00:33:12;7.70;94.90
18365;DHT22;9309;52.126;11.616;2023-02-12T00:35:38;7.70;94.70
18365;DHT22;9309;52.126;11.616;2023-02-12T00:38:06;7.70;94.70
18365;DHT22;9309;52.126;11.616;2023-02-12T00:40:33;7.60;95.20
18365;DHT22;9309;52.126;11.616;2023-02-12T00:42:59;7.70;95.20
18365;DHT22;9309;52.126;11.616;2023-02-12T00:45:26;7.70;95.10
18365;DHT22;9309;52.126;11.616;2023-02-12T00:47:52;7.70;95.10
18365;DHT22;9309;52.126;11.616;2023-02-12T00:50:19;7.70;95.20
18365;DHT22;9309;52.126;11.616;2023-02-12T00:52:45;7.70;95.00
18365;DHT22;9309;52.126;11.616;2023-02-12T00:55:13;7.50;95.20
18365;DHT22;9309;52.126;11.616;2023-02-12T00:57:40;7.60;95.60
18365;DHT22;9309;52.126;11.616;2023-02-12T01:00:07;7.60;95.30
18365;DHT22;9309;52.126;11.616;2023-02-12T01:02:34;7.60;95.10
18365;DHT22;9309;52.126;11.616;2023-02-12T01:05:00;7.60;95.00
18365;DHT22;9309;52.126;11.616;2023-02-12T01:07:27;7.60;94.80
18365;DHT22;9309;52.126;11.616;2023-02-12T01:09:55;7.60;95.20
18365;DHT22;9309;52.126;11.616;2023-02-12T01:12:23;7.70;94.70
18365;DHT22;9309;52.126;11.616;2023-02-12T01:14:49;7.70;94.50
18365;DHT22;9309;52.126;11.616;2023-02-12T01:17:16;7.60;94.90
18365;DHT22;9309;52.126;11.616;2023-02-12T01:19:43;7.60;94.60
18365;DHT22;9309;52.126;11.616;2023-02-12T01:22:09;7.50;95.20
18365;DHT22;9309;52.126;11.616;2023-02-12T01:24:36;7.50;95.50
18365;DHT22;9309;52.126;11.616;2023-02-12T01:27:02;7.60;94.90
18365;DHT22;9309;52.126;11.616;2023-02-12T01:29:30;7.60;95.30
18365;DHT22;9309;52.126;11.616;2023-02-12T01:31:59;7.60;94.60
18365;DHT22;9309;52.126;11.616;2023-02-12T01:34:26;7.60;94.40
18365;DHT22;9309;52.126;11.616;2023-02-12T01:36:52;7.60;94.30
18365;DHT22;9309;52.126;11.616;2023-02-12T01:39:19;7.60;94.40
18365;DHT22;9309;52.126;11.616;2023-02-12T01:41:46;7.60;94.40
18365;DHT22;9309;52.126;11.616;2023-02-12T01:44:14;7.60;94.70
18365;DHT22;9309;52.126;11.616;2023-02-12T01:46:46;7.60;94.50
18365;DHT22;9309;52.126;11.616;2023-02-12T01:49:14;7.50;94.80
18365;DHT22;9309;52.126;11.616;2023-02-12T01:51:41;7.60;94.60
18365;DHT22;9309;52.126;11.616;2023-02-12T01:54:09;7.60;94.20
18365;DHT22;9309;52.126;11.616;2023-02-12T01:56:37;7.60;94.10
18365;DHT22;9309;52.126;11.616;2023-02-12T01:59:05;7.50;94.10
18365;DHT22;9309;52.126;11.616;2023-02-12T02:01:32;7.40;94.50
18365;DHT22;9309;52.126;11.616;2023-02-12T02:04:01;7.50;94.40
18365;DHT22;9309;52.126;11.616;2023-02-12T02:06:30;7.50;94.60
18365;DHT22;9309;52.126;11.616;2023-02-12T02:08:58;7.60;94.10
18365;DHT22;9309;52.126;11.616;2023-02-12T02:11:26;7.50;94.10
18365;DHT22;9309;52.126;11.616;2023-02-12T02:14:10;7.40;94.20
18365;DHT22;9309;52.126;11.616;2023-02-12T02:16:56;7.40;94.40
18365;DHT22;9309;52.126;11.616;2023-02-12T02:19:29;7.40;94.70
18365;DHT22;9309;52.126;11.616;2023-02-12T02:22:01;7.50;94.30
18365;DHT22;9309;52.126;11.616;2023-02-12T02:24:46;7.50;94.40
18365;DHT22;9309;52.126;11.616;2023-02-12T02:27:21;7.60;93.50
18365;DHT22;9309;52.126;11.616;2023-02-12T02:32:27;7.80;93.10
18365;DHT22;9309;52.126;11.616;2023-02-12T02:34:56;7.60;93.00
18365;DHT22;9309;52.126;11.616;2023-02-12T02:37:25;7.80;92.80
18365;DHT22;9309;52.126;11.616;2023-02-12T02:39:53;7.70;92.50
18365;DHT22;9309;52.126;11.616;2023-02-12T02:42:22;7.80;92.50
18365;DHT22;9309;52.126;11.616;2023-02-12T02:44:51;7.80;91.90
18365;DHT22;9309;52.126;11.616;2023-02-12T02:47:19;7.80;92.40
18365;DHT22;9309;52.126;11.616;2023-02-12T02:49:49;7.90;91.90
18365;DHT22;9309;52.126;11.616;2023-02-12T02:52:17;7.90;91.70
18365;DHT22;9309;52.126;11.616;2023-02-12T02:54:47;7.90;91.50
18365;DHT22;9309;52.126;11.616;2023-02-12T02:57:15;7.90;91.50
18365;DHT22;9309;52.126;11.616;2023-02-12T02:59:43;7.70;92.20
18365;DHT22;9309;52.126;11.616;2023-02-12T03:02:11;7.70;92.50
18365;DHT22;9309;52.126;11.616;2023-02-12T03:04:40;7.70;92.50
18365;DHT22;9309;52.126;11.616;2023-02-12T03:07:10;7.80;92.30
18365;DHT22;9309;52.126;11.616;2023-02-12T03:09:39;7.70;91.50
18365;DHT22;9309;52.126;11.616;2023-02-12T03:12:08;7.60;92.90
18365;DHT22;9309;52.126;11.616;2023-02-12T03:14:38;7.60;92.70
18365;DHT22;9309;52.126;11.616;2023-02-12T03:17:06;7.70;92.40
18365;DHT22;9309;52.126;11.616;2023-02-12T03:19:34;7.60;92.70
18365;DHT22;9309;52.126;11.616;2023-02-12T03:22:03;7.60;92.60
18365;DHT22;9309;52.126;11.616;2023-02-12T03:24:33;7.50;93.30
18365;DHT22;9309;52.126;11.616;2023-02-12T03:27:02;7.60;93.40
18365;DHT22;9309;52.126;11.616;2023-02-12T03:29:30;7.70;92.60
18365;DHT22;9309;52.126;11.616;2023-02-12T03:31:58;7.50;93.30
18365;DHT22;9309;52.126;11.616;2023-02-12T03:34:33;7.60;94.00
18365;DHT22;9309;52.126;11.616;2023-02-12T03:37:04;7.70;92.90
18365;DHT22;9309;52.126;11.616;2023-02-12T03:39:36;7.80;92.40
18365;DHT22;9309;52.126;11.616;2023-02-12T03:42:06;7.90;91.90
18365;DHT22;9309;52.126;11.616;2023-02-12T03:44:43;7.80;92.50
18365;DHT22;9309;52.126;11.616;2023-02-12T03:47:14;7.70;92.90
18365;DHT22;9309;52.126;11.616;2023-02-12T03:49:42;7.70;93.40
18365;DHT22;9309;52.126;11.616;2023-02-12T03:52:11;7.60;94.00
18365;DHT22;9309;52.126;11.616;2023-02-12T03:54:39;7.60;94.10
18365;DHT22;9309;52.126;11.616;2023-02-12T03:57:06;7.60;94.30
18365;DHT22;9309;52.126;11.616;2023-02-12T03:59:34;7.70;93.90
18365;DHT22;9309;52.126;11.616;2023-02-12T04:02:03;7.60;94.20
18365;DHT22;9309;52.126;11.616;2023-02-12T04:04:29;7.70;94.00
18365;DHT22;9309;52.126;11.616;2023-02-12T04:06:56;7.70;93.90
18365;DHT22;9309;52.126;11.616;2023-02-12T04:09:23;7.60;93.80
18365;DHT22;9309;52.126;11.616;2023-02-12T04:11:57;7.60;94.20
18365;DHT22;9309;52.126;11.616;2023-02-12T04:14:26;7.60;94.20
18365;DHT22;9309;52.126;11.616;2023-02-12T04:16:57;7.50;94.80
18365;DHT22;9309;52.126;11.616;2023-02-12T04:19:33;7.50;95.10
18365;DHT22;9309;52.126;11.616;2023-02-12T04:22:09;7.50;95.30
18365;DHT22;9309;52.126;11.616;2023-02-12T04:24:45;7.50;95.60
18365;DHT22;9309;52.126;11.616;2023-02-12T04:27:17;7.40;95.90
18365;DHT22;9309;52.126;11.616;2023-02-12T04:29:49;7.50;95.60
18365;DHT22;9309;52.126;11.616;2023-02-12T04:32:19;7.60;95.20
18365;DHT22;9309;52.126;11.616;2023-02-12T04:34:52;7.60;95.10
18365;DHT22;9309;52.126;11.616;2023-02-12T04:37:20;7.50;94.80
18365;DHT22;9309;52.126;11.616;2023-02-12T04:39:48;7.40;95.30
18365;DHT22;9309;52.126;11.616;2023-02-12T04:42:18;7.30;96.10
18365;DHT22;9309;52.126;11.616;2023-02-12T04:44:44;7.40;96.10
18365;DHT22;9309;52.126;11.616;2023-02-12T04:47:11;7.30;96.20
18365;DHT22;9309;52.126;11.616;2023-02-12T04:49:38;7.30;96.60
18365;DHT22;9309;52.126;11.616;2023-02-12T04:52:04;7.30;96.10
18365;DHT22;9309;52.126;11.616;2023-02-12T04:54:31;7.30;96.60
18365;DHT22;9309;52.126;11.616;2023-02-12T04:56:58;7.40;96.40
18365;DHT22;9309;52.126;11.616;2023-02-12T04:59:25;7.30;95.90
18365;DHT22;9309;52.126;11.616;2023-02-12T05:01:52;7.40;96.40
18365;DHT22;9309;52.126;11.616;2023-02-12T05:04:18;7.30;96.00
18365;DHT22;9309;52.126;11.616;2023-02-12T05:06:45;7.40;96.40
18365;DHT22;9309;52.126;11.616;2023-02-12T05:09:13;7.40;95.80
18365;DHT22;9309;52.126;11.616;2023-02-12T05:11:40;7.40;95.90
18365;DHT22;9309;52.126;11.616;2023-02-12T05:14:06;7.50;95.10
18365;DHT22;9309;52.126;11.616;2023-02-12T05:16:34;7.50;94.90
18365;DHT22;9309;52.126;11.616;2023-02-12T05:19:01;7.50;94.80
18365;DHT22;9309;52.126;11.616;2023-02-12T05:21:27;7.50;94.70
18365;DHT22;9309;52.126;11.616;2023-02-12T05:23:54;7.50;94.60
18365;DHT22;9309;52.126;11.616;2023-02-12T05:26:21;7.30;95.00
18365;DHT22;9309;52.126;11.616;2023-02-12T05:28:47;7.40;95.70
18365;DHT22;9309;52.126;11.616;2023-02-12T05:31:16;7.30;95.50
18365;DHT22;9309;52.126;11.616;2023-02-12T05:33:44;7.30;95.80
18365;DHT22;9309;52.126;11.616;2023-02-12T05:36:12;7.30;95.90
18365;DHT22;9309;52.126;11.616;2023-02-12T05:38:39;7.40;96.10
18365;DHT22;9309;52.126;11.616;2023-02-12T05:41:06;7.50;95.30
18365;DHT22;9309;52.126;11.616;2023-02-12T05:43:33;7.50;95.00
18365;DHT22;9309;52.126;11.616;2023-02-12T05:46:00;7.60;94.60
18365;DHT22;9309;52.126;11.616;2023-02-12T05:48:27;7.40;94.80
18365;DHT22;9309;52.126;11.616;2023-02-12T05:50:59;7.50;95.10
18365;DHT22;9309;52.126;11.616;2023-02-12T05:53:26;7.60;94.80
18365;DHT22;9309;52.126;11.616;2023-02-12T05:55:53;7.40;95.00
18365;DHT22;9309;52.126;11.616;2023-02-12T05:58:19;7.60;95.20
18365;DHT22;9309;52.126;11.616;2023-02-12T06:00:46;7.70;94.60
18365;DHT22;9309;52.126;11.616;2023-02-12T06:03:12;7.70;94.20
18365;DHT22;9309;52.126;11.616;2023-02-12T06:05:39;7.70;94.00
18365;DHT22;9309;52.126;11.616;2023-02-12T06:08:06;7.60;93.80
18365;DHT22;9309;52.126;11.616;2023-02-12T06:10:33;7.70;94.20
18365;DHT22;9309;52.126;11.616;2023-02-12T06:12:59;7.60;94.30
18365;DHT22;9309;52.126;11.616;2023-02-12T06:15:26;7.60;94.30
18365;DHT22;9309;52.126;11.616;2023-02-12T06:17:52;7.70;94.00
18365;DHT22;9309;52.126;11.616;2023-02-12T06:20:19;7.60;93.60
18365;DHT22;9309;52.126;11.616;2023-02-12T06:22:45;7.50;94.40
18365;DHT22;9309;52.126;11.616;2023-02-12T06:25:13;7.50;94.50
18365;DHT22;9309;52.126;11.616;2023-02-12T06:27:40;7.50;94.30
18365;DHT22;9309;52.126;11.616;2023-02-12T06:30:07;7.60;94.60
18365;DHT22;9309;52.126;11.616;2023-02-12T06:32:34;7.70;94.00
18365;DHT22;9309;52.126;11.616;2023-02-12T06:35:00;7.50;94.40
18365;DHT22;9309;52.126;11.616;2023-02-12T06:37:27;7.50;94.50
18365;DHT22;9309;52.126;11.616;2023-02-12T06:39:53;7.60;94.20
18365;DHT22;9309;52.126;11.616;2023-02-12T06:42:21;7.60;94.00
18365;DHT22;9309;52.126;11.616;2023-02-12T06:44:48;7.70;93.40
18365;DHT22;9309;52.126;11.616;2023-02-12T06:47:14;7.70;93.40
18365;DHT22;9309;52.126;11.616;2023-02-12T06:49:41;7.70;93.10
18365;DHT22;9309;52.126;11.616;2023-02-12T06:52:07;7.70;93.30
18365;DHT22;9309;52.126;11.616;2023-02-12T06:54:34;7.60;93.00
18365;DHT22;9309;52.126;11.616;2023-02-12T06:57:00;7.70;93.30
18365;DHT22;9309;52.126;11.616;2023-02-12T06:59:28;7.80;92.30
18365;DHT22;9309;52.126;11.616;2023-02-12T07:01:55;7.90;91.80
18365;DHT22;9309;52.126;11.616;2023-02-12T07:04:21;8.00;91.70
18365;DHT22;9309;52.126;11.616;2023-02-12T07:06:48;7.90;91.40
18365;DHT22;9309;52.126;11.616;2023-02-12T07:09:14;7.90;91.10
18365;DHT22;9309;52.126;11.616;2023-02-12T07:11:41;7.90;91.40
18365;DHT22;9309;52.126;11.616;2023-02-12T07:14:11;7.80;91.60
18365;DHT22;9309;52.126;11.616;2023-02-12T07:16:49;7.80;91.50
18365;DHT22;9309;52.126;11.616;2023-02-12T07:19:15;7.80;91.80
18365;DHT22;9309;52.126;11.616;2023-02-12T07:21:42;7.60;91.70
18365;DHT22;9309;52.126;11.616;2023-02-12T07:24:09;7.80;92.00
18365;DHT22;9309;52.126;11.616;2023-02-12T07:26:36;7.80;91.70
18365;DHT22;9309;52.126;11.616;2023-02-12T07:29:03;7.70;91.40
18365;DHT22;9309;52.126;11.616;2023-02-12T07:31:29;7.60;92.30
18365;DHT22;9309;52.126;11.616;2023-02-12T07:33:58;7.60;92.10
18365;DHT22;9309;52.126;11.616;2023-02-12T07:36:25;7.60;92.70
18365;DHT22;9309;52.126;11.616;2023-02-12T07:38:52;7.60;92.40
18365;DHT22;9309;52.126;11.616;2023-02-12T07:41:20;7.50;92.90
18365;DHT22;9309;52.126;11.616;2023-02-12T07:43:47;7.50;92.80
18365;DHT22;9309;52.126;11.616;2023-02-12T07:46:14;7.60;92.40
18365;DHT22;9309;52.126;11.616;2023-02-12T07:48:42;7.50;92.80
18365;DHT22;9309;52.126;11.616;2023-02-12T07:51:10;7.50;93.30
18365;DHT22;9309;52.126;11.616;2023-02-12T07:53:37;7.60;92.10
18365;DHT22;9309;52.126;11.616;2023-02-12T07:56:05;7.50;92.30
18365;DHT22;9309;52.126;11.616;2023-02-12T07:58:31;7.40;92.60
18365;DHT22;9309;52.126;11.616;2023-02-12T08:00:58;7.40;93.40
18365;DHT22;9309;52.126;11.616;2023-02-12T08:03:26;7.40;93.20
18365;DHT22;9309;52.126;11.616;2023-02-12T08:05:52;7.40;93.50
18365;DHT22;9309;52.126;11.616;2023-02-12T08:08:20;7.40;93.20
18365;DHT22;9309;52.126;11.616;2023-02-12T08:10:47;7.50;93.40
18365;DHT22;9309;52.126;11.616;2023-02-12T08:13:13;7.70;93.00
18365;DHT22;9309;52.126;11.616;2023-02-12T08:15:40;7.80;91.80
18365;DHT22;9309;52.126;11.616;2023-02-12T08:18:06;7.80;91.20
18365;DHT22;9309;52.126;11.616;2023-02-12T08:20:33;7.70;90.90
18365;DHT22;9309;52.126;11.616;2023-02-12T08:22:59;7.90;91.00
18365;DHT22;9309;52.126;11.616;2023-02-12T08:25:27;7.90;90.10
18365;DHT22;9309;52.126;11.616;2023-02-12T08:27:54;7.90;90.00
18365;DHT22;9309;52.126;11.616;2023-02-12T08:30:20;7.90;90.30
18365;DHT22;9309;52.126;11.616;2023-02-12T08:32:47;8.20;88.40
18365;DHT22;9309;52.126;11.616;2023-02-12T08:35:14;8.30;87.90
18365;DHT22;9309;52.126;11.616;2023-02-12T08:37:40;8.10;87.70
18365;DHT22;9309;52.126;11.616;2023-02-12T08:40:07;8.20;87.50
18365;DHT22;9309;52.126;11.616;2023-02-12T08:42:35;8.30;86.50
18365;DHT22;9309;52.126;11.616;2023-02-12T08:45:02;8.20;86.50
18365;DHT22;9309;52.126;11.616;2023-02-12T08:47:29;8.00;87.20
18365;DHT22;9309;52.126;11.616;2023-02-12T08:49:55;8.10;87.20
18365;DHT22;9309;52.126;11.616;2023-02-12T08:52:22;8.20;87.20
18365;DHT22;9309;52.126;11.616;2023-02-12T08:54:48;8.30;86.80
18365;DHT22;9309;52.126;11.616;2023-02-12T08:57:15;8.30;86.90
18365;DHT22;9309;52.126;11.616;2023-02-12T08:59:42;8.70;85.90
18365;DHT22;9309;52.126;11.616;2023-02-12T09:02:09;8.90;84.80
18365;DHT22;9309;52.126;11.616;2023-02-12T09:04:36;8.90;83.40
18365;DHT22;9309;52.126;11.616;2023-02-12T09:07:02;8.70;84.50
18365;DHT22;9309;52.126;11.616;2023-02-12T09:09:29;8.60;84.70
18365;DHT22;9309;52.126;11.616;2023-02-12T09:11:55;8.40;85.90
18365;DHT22;9309;52.126;11.616;2023-02-12T09:14:22;8.30;86.00
18365;DHT22;9309;52.126;11.616;2023-02-12T09:16:50;8.70;85.30
18365;DHT22;9309;52.126;11.616;2023-02-12T09:19:17;9.00;82.80
18365;DHT22;9309;52.126;11.616;2023-02-12T09:21:44;8.70;84.20
18365;DHT22;9309;52.126;11.616;2023-02-12T09:24:10;8.70;84.20
18365;DHT22;9309;52.126;11.616;2023-02-12T09:26:38;8.80;83.70
18365;DHT22;9309;52.126;11.616;2023-02-12T09:29:04;8.70;83.70
18365;DHT22;9309;52.126;11.616;2023-02-12T09:31:31;8.60;84.40
18365;DHT22;9309;52.126;11.616;2023-02-12T09:34:00;8.70;84.30
18365;DHT22;9309;52.126;11.616;2023-02-12T09:36:27;8.90;83.80
18365;DHT22;9309;52.126;11.616;2023-02-12T09:38:54;8.80;83.40
18365;DHT22;9309;52.126;11.616;2023-02-12T09:41:24;8.70;84.40
18365;DHT22;9309;52.126;11.616;2023-02-12T09:43:55;8.80;84.00
18365;DHT22;9309;52.126;11.616;2023-02-12T09:46:26;9.10;83.30
18365;DHT22;9309;52.126;11.616;2023-02-12T09:48:54;9.20;81.40
18365;DHT22;9309;52.126;11.616;2023-02-12T09:51:28;9.20;81.60
18365;DHT22;9309;52.126;11.616;2023-02-12T09:53:59;9.60;79.90
18365;DHT22;9309;52.126;11.616;2023-02-12T09:56:26;9.50;80.40
18365;DHT22;9309;52.126;11.616;2023-02-12T09:58:54;9.60;80.00
18365;DHT22;9309;52.126;11.616;2023-02-12T10:01:22;9.80;78.90
18365;DHT22;9309;52.126;11.616;2023-02-12T10:03:49;10.00;77.50
18365;DHT22;9309;52.126;11.616;2023-02-12T10:06:18;9.90;78.50
18365;DHT22;9309;52.126;11.616;2023-02-12T10:08:56;10.10;77.50
18365;DHT22;9309;52.126;11.616;2023-02-12T10:11:29;10.40;76.50
18365;DHT22;9309;52.126;11.616;2023-02-12T10:14:03;10.80;74.80
18365;DHT22;9309;52.126;11.616;2023-02-12T10:16:36;11.20;73.00
18365;DHT22;9309;52.126;11.616;2023-02-12T10:19:12;11.30;71.90
18365;DHT22;9309;52.126;11.616;2023-02-12T10:21:44;11.20;72.10
18365;DHT22;9309;52.126;11.616;2023-02-12T10:24:21;11.00;73.40
18365;DHT22;9309;52.126;11.616;2023-02-12T10:26:51;10.80;74.40
18365;DHT22;9309;52.126;11.616;2023-02-12T10:29:19;10.50;75.30
18365;DHT22;9309;52.126;11.616;2023-02-12T10:31:47;10.30;77.20
18365;DHT22;9309;52.126;11.616;2023-02-12T10:34:17;10.60;76.40
18365;DHT22;9309;52.126;11.616;2023-02-12T10:36:44;10.70;76.00
18365;DHT22;9309;52.126;11.616;2023-02-12T10:39:12;10.90;73.60
18365;DHT22;9309;52.126;11.616;2023-02-12T10:41:42;10.90;74.10
18365;DHT22;9309;52.126;11.616;2023-02-12T10:44:10;11.20;73.10
18365;DHT22;9309;52.126;11.616;2023-02-12T10:46:37;10.80;74.10
18365;DHT22;9309;52.126;11.616;2023-02-12T10:49:03;11.10;74.20
18365;DHT22;9309;52.126;11.616;2023-02-12T10:51:35;11.20;73.90
18365;DHT22;9309;52.126;11.616;2023-02-12T10:56:50;11.50;71.70
18365;DHT22;9309;52.126;11.616;2023-02-12T10:59:21;11.90;70.90
18365;DHT22;9309;52.126;11.616;2023-02-12T11:01:48;12.50;70.10
18365;DHT22;9309;52.126;11.616;2023-02-12T11:04:18;12.70;66.40
18365;DHT22;9309;52.126;11.616;2023-02-12T11:06:55;12.20;69.60
18365;DHT22;9309;52.126;11.616;2023-02-12T11:09:26;12.40;68.50
18365;DHT22;9309;52.126;11.616;2023-02-12T11:11:54;13.00;67.80
18365;DHT22;9309;52.126;11.616;2023-02-12T11:14:20;13.70;63.90
18365;DHT22;9309;52.126;11.616;2023-02-12T11:16:50;15.10;62.70
18365;DHT22;9309;52.126;11.616;2023-02-12T11:19:18;17.10;53.60
18365;DHT22;9309;52.126;11.616;2023-02-12T11:21:45;16.80;52.50
18365;DHT22;9309;52.126;11.616;2023-02-12T11:24:27;16.00;55.20
18365;DHT22;9309;52.126;11.616;2023-02-12T11:27:11;15.80;55.80
18365;DHT22;9309;52.126;11.616;2023-02-12T11:29:38;16.10;55.20
18365;DHT22;9309;52.126;11.616;2023-02-12T11:32:05;15.60;55.40
18365;DHT22;9309;52.126;11.616;2023-02-12T11:34:33;14.90;58.00
18365;DHT22;9309;52.126;11.616;2023-02-12T11:37:00;13.90;61.80
18365;DHT22;9309;52.126;11.616;2023-02-12T11:39:27;13.80;62.40
18365;DHT22;9309;52.126;11.616;2023-02-12T11:41:57;14.20;60.20
18365;DHT22;9309;52.126;11.616;2023-02-12T11:44:26;14.50;59.80
18365;DHT22;9309;52.126;11.616;2023-02-12T11:46:54;14.00;62.30
18365;DHT22;9309;52.126;11.616;2023-02-12T11:49:22;13.90;62.30
18365;DHT22;9309;52.126;11.616;2023-02-12T11:51:49;13.30;63.50
18365;DHT22;9309;52.126;11.616;2023-02-12T11:54:17;12.30;67.80
18365;DHT22;9309;52.126;11.616;2023-02-12T11:56:45;12.20;68.70
18365;DHT22;9309;52.126;11.616;2023-02-12T11:59:16;12.20;69.30
18365;DHT22;9309;52.126;11.616;2023-02-12T12:01:47;11.70;70.40
18365;DHT22;9309;52.126;11.616;2023-02-12T12:04:15;11.40;71.20
18365;DHT22;9309;52.126;11.616;2023-02-12T12:06:43;11.30;72.50
18365;DHT22;9309;52.126;11.616;2023-02-12T12:09:12;11.10;73.30
18365;DHT22;9309;52.126;11.616;2023-02-12T12:11:45;10.80;74.70
18365;DHT22;9309;52.126;11.616;2023-02-12T12:14:19;10.70;75.00
18365;DHT22;9309;52.126;11.616;2023-02-12T12:16:55;10.90;74.40
18365;DHT22;9309;52.126;11.616;2023-02-12T12:19:47;10.60;75.50
18365;DHT22;9309;52.126;11.616;2023-02-12T12:22:27;10.60;76.30
18365;DHT22;9309;52.126;11.616;2023-02-12T12:25:09;10.50;76.20
18365;DHT22;9309;52.126;11.616;2023-02-12T12:27:43;10.40;76.70
18365;DHT22;9309;52.126;11.616;2023-02-12T12:30:40;10.50;76.30
18365;DHT22;9309;52.126;11.616;2023-02-12T12:33:16;10.30;77.30
18365;DHT22;9309;52.126;11.616;2023-02-12T12:35:55;10.20;77.50
18365;DHT22;9309;52.126;11.616;2023-02-12T12:38:36;10.20;77.60
18365;DHT22;9309;52.126;11.616;2023-02-12T12:41:14;10.00;77.90
18365;DHT22;9309;52.126;11.616;2023-02-12T12:43:52;10.10;77.60
18365;DHT22;9309;52.126;11.616;2023-02-12T12:46:45;10.20;77.30
18365;DHT22;9309;52.126;11.616;2023-02-12T12:49:29;10.20;77.30
18365;DHT22;9309;52.126;11.616;2023-02-12T12:52:09;10.00;77.60
18365;DHT22;9309;52.126;11.616;2023-02-12T12:54:47;10.10;77.70
18365;DHT22;9309;52.126;11.616;2023-02-12T12:57:26;10.10;77.10
18365;DHT22;9309;52.126;11.616;2023-02-12T13:00:17;10.10;78.00
18365;DHT22;9309;52.126;11.616;2023-02-12T13:03:19;10.20;76.90
18365;DHT22;9309;52.126;11.616;2023-02-12T13:12:12;10.00;77.10
18365;DHT22;9309;52.126;11.616;2023-02-12T13:14:50;10.00;77.60
18365;DHT22;9309;52.126;11.616;2023-02-12T13:17:25;10.30;76.90
18365;DHT22;9309;52.126;11.616;2023-02-12T13:19:59;10.40;76.20
18365;DHT22;9309;52.126;11.616;2023-02-12T13:22:31;10.40;76.30
18365;DHT22;9309;52.126;11.616;2023-02-12T13:25:05;10.70;75.60
18365;DHT22;9309;52.126;11.616;2023-02-12T13:27:36;10.90;74.20
18365;DHT22;9309;52.126;11.616;2023-02-12T13:30:16;10.60;76.00
18365;DHT22;9309;52.126;11.616;2023-02-12T13:32:45;10.40;76.80
18365;DHT22;9309;52.126;11.616;2023-02-12T13:35:17;10.60;76.30
18365;DHT22;9309;52.126;11.616;2023-02-12T13:37:47;10.80;74.60
18365;DHT22;9309;52.126;11.616;2023-02-12T13:40:17;10.80;75.50
18365;DHT22;9309;52.126;11.616;2023-02-12T13:42:49;10.90;74.10
18365;DHT22;9309;52.126;11.616;2023-02-12T13:45:23;11.00;74.30
18365;DHT22;9309;52.126;11.616;2023-02-12T13:48:04;11.20;73.90
18365;DHT22;9309;52.126;11.616;2023-02-12T13:50:39;11.20;73.50
18365;DHT22;9309;52.126;11.616;2023-02-12T13:53:17;11.20;73.10
18365;DHT22;9309;52.126;11.616;2023-02-12T13:56:02;11.10;73.10
18365;DHT22;9309;52.126;11.616;2023-02-12T13:58:38;10.90;75.00
18365;DHT22;9309;52.126;11.616;2023-02-12T14:01:06;10.80;74.70
18365;DHT22;9309;52.126;11.616;2023-02-12T14:03:34;10.70;75.10
18365;DHT22;9309;52.126;11.616;2023-02-12T14:06:10;10.60;76.40
18365;DHT22;9309;52.126;11.616;2023-02-12T14:08:39;10.80;75.90
18365;DHT22;9309;52.126;11.616;2023-02-12T14:11:09;10.80;75.80
18365;DHT22;9309;52.126;11.616;2023-02-12T14:13:47;10.80;75.10
18365;DHT22;9309;52.126;11.616;2023-02-12T14:16:37;10.80;74.50
18365;DHT22;9309;52.126;11.616;2023-02-12T14:25:41;10.80;74.10
18365;DHT22;9309;52.126;11.616;2023-02-12T14:28:18;10.40;75.90
18365;DHT22;9309;52.126;11.616;2023-02-12T14:31:19;10.10;78.30
18365;DHT22;9309;52.126;11.616;2023-02-12T14:33:48;10.20;78.10
18365;DHT22;9309;52.126;11.616;2023-02-12T14:36:19;10.20;78.10
18365;DHT22;9309;52.126;11.616;2023-02-12T14:39:28;10.20;77.80
18365;DHT22;9309;52.126;11.616;2023-02-12T14:44:56;10.10;78.20
18365;DHT22;9309;52.126;11.616;2023-02-12T14:47:50;10.00;78.90
18365;DHT22;9309;52.126;11.616;2023-02-12T14:50:30;9.90;79.20
18365;DHT22;9309;52.126;11.616;2023-02-12T14:53:15;9.70;80.40
18365;DHT22;9309;52.126;11.616;2023-02-12T14:55:47;9.80;80.10
18365;DHT22;9309;52.126;11.616;2023-02-12T14:58:17;9.80;80.60
18365;DHT22;9309;52.126;11.616;2023-02-12T15:00:46;9.70;80.20
18365;DHT22;9309;52.126;11.616;2023-02-12T15:03:21;9.80;80.20
18365;DHT22;9309;52.126;11.616;2023-02-12T15:06:06;9.70;80.20
18365;DHT22;9309;52.126;11.616;2023-02-12T15:08:40;9.70;80.50
18365;DHT22;9309;52.126;11.616;2023-02-12T15:11:19;9.60;81.40
18365;DHT22;9309;52.126;11.616;2023-02-12T15:13:48;9.50;81.80
18365;DHT22;9309;52.126;11.616;2023-02-12T15:16:31;9.60;81.20
18365;DHT22;9309;52.126;11.616;2023-02-12T15:19:03;9.60;81.50
18365;DHT22;9309;52.126;11.616;2023-02-12T15:21:32;9.90;80.20
18365;DHT22;9309;52.126;11.616;2023-02-12T15:24:02;9.70;80.80
18365;DHT22;9309;52.126;11.616;2023-02-12T15:26:33;9.70;81.00
18365;DHT22;9309;52.126;11.616;2023-02-12T15:29:01;9.70;81.30
18365;DHT22;9309;52.126;11.616;2023-02-12T15:31:30;9.70;81.50
18365;DHT22;9309;52.126;11.616;2023-02-12T15:33:59;9.70;81.10
18365;DHT22;9309;52.126;11.616;2023-02-12T15:36:28;9.90;79.80
18365;DHT22;9309;52.126;11.616;2023-02-12T15:38:57;9.80;79.70
18365;DHT22;9309;52.126;11.616;2023-02-12T15:41:35;9.70;80.30
18365;DHT22;9309;52.126;11.616;2023-02-12T15:44:04;9.70;80.30
18365;DHT22;9309;52.126;11.616;2023-02-12T15:46:55;9.70;80.70
18365;DHT22;9309;52.126;11.616;2023-02-12T15:49:26;9.90;79.80
18365;DHT22;9309;52.126;11.616;2023-02-12T15:51:54;9.70;80.10
18365;DHT22;9309;52.126;11.616;2023-02-12T15:54:22;9.60;80.00
18365;DHT22;9309;52.126;11.616;2023-02-12T15:56:51;9.50;80.40
18365;DHT22;9309;52.126;11.616;2023-02-12T15:59:20;9.50;80.60
18365;DHT22;9309;52.126;11.616;2023-02-12T16:01:56;9.70;80.50
18365;DHT22;9309;52.126;11.616;2023-02-12T16:04:26;9.70;80.10
18365;DHT22;9309;52.126;11.616;2023-02-12T16:06:54;9.60;80.80
18365;DHT22;9309;52.126;11.616;2023-02-12T16:09:25;9.60;81.20
18365;DHT22;9309;52.126;11.616;2023-02-12T16:11:56;9.50;82.10
18365;DHT22;9309;52.126;11.616;2023-02-12T16:14:26;9.40;82.70
18365;DHT22;9309;52.126;11.616;2023-02-12T16:16:57;9.20;83.30
18365;DHT22;9309;52.126;11.616;2023-02-12T16:19:25;9.30;83.40
18365;DHT22;9309;52.126;11.616;2023-02-12T16:21:54;9.20;83.60